Аэропорт: Ивано-Франковск. Ивано-Франковск

ICAO: UKLI

METAR:
2020-08-13 11:00:00
UKLI 131100Z 10002MPS 050V220 CAVOK 25/11 Q1018 R28/090070 NOSIG
METAR:
2020-08-13 08:01:00
TAF UKLI 130801Z 1309/1318 VRB01MPS 9999 SCT030 TX27/1313Z TN22/1318Z